createdAt,value
2022-08-07T00:00:46.321Z,89.55
2022-08-07T00:02:36.165Z,89.55
2022-08-07T00:02:46.350Z,89.75
2022-08-07T00:03:47.258Z,89.75
2022-08-07T00:04:46.553Z,89.75
2022-08-07T00:05:46.454Z,89.65
2022-08-07T00:06:51.723Z,89.75
2022-08-07T00:07:46.493Z,89.75
2022-08-07T00:08:46.552Z,89.86
2022-08-07T00:09:59.191Z,89.75
2022-08-07T00:10:47.973Z,89.65
2022-08-07T00:11:48.020Z,89.45
2022-08-07T00:13:00.589Z,89.34
2022-08-07T00:13:46.733Z,89.25
2022-08-07T00:14:46.784Z,89.65
2022-08-07T00:15:50.963Z,90.16
2022-08-07T00:16:46.854Z,90.31
2022-08-07T00:17:46.933Z,90.51
2022-08-07T00:18:46.974Z,90.71
2022-08-07T00:20:01.104Z,91.02
2022-08-07T00:20:47.666Z,91.27
2022-08-07T00:21:57.003Z,91.67
2022-08-07T00:22:51.458Z,92.39
2022-08-07T00:23:47.546Z,92.90
2022-08-07T00:24:47.106Z,92.94
2022-08-07T00:25:58.997Z,92.84
2022-08-07T00:26:58.954Z,92.94
2022-08-07T00:27:52.609Z,93.15
2022-08-07T00:28:56.508Z,93.25
2022-08-07T00:29:47.267Z,93.35
2022-08-07T00:30:47.318Z,93.35
2022-08-07T00:31:51.234Z,93.45
2022-08-07T00:32:47.358Z,93.45
2022-08-07T00:33:47.970Z,93.45
2022-08-07T00:34:47.483Z,93.55
2022-08-07T00:35:49.749Z,93.66
2022-08-07T00:36:47.569Z,93.86
2022-08-07T00:37:48.619Z,93.86
2022-08-07T00:38:47.631Z,93.96
2022-08-07T00:39:54.629Z,93.76
2022-08-07T00:40:47.709Z,93.86
2022-08-07T00:41:53.490Z,93.86
2022-08-07T00:42:50.206Z,93.86
2022-08-07T00:44:00.446Z,93.76
2022-08-07T00:44:47.887Z,93.96
2022-08-07T00:45:48.572Z,94.01
2022-08-07T00:46:47.952Z,94.21
2022-08-07T00:48:09.273Z,94.32
2022-08-07T00:48:49.933Z,94.42
2022-08-07T00:50:19.249Z,94.21
2022-08-07T00:50:51.341Z,94.62
2022-08-07T00:51:58.515Z,94.73
2022-08-07T00:52:48.183Z,94.82
2022-08-07T00:53:55.322Z,94.82
2022-08-07T00:54:53.911Z,94.82
2022-08-07T00:56:03.207Z,94.73
2022-08-07T00:56:49.780Z,94.52
2022-08-07T00:57:55.865Z,94.52
2022-08-07T00:58:49.850Z,94.52
2022-08-07T00:59:48.469Z,94.42
2022-08-07T01:00:51.378Z,94.73
2022-08-07T01:01:48.674Z,94.93
2022-08-07T01:02:48.548Z,95.07
2022-08-07T01:03:56.771Z,95.38
2022-08-07T01:04:48.652Z,95.59
2022-08-07T01:05:51.630Z,95.59
2022-08-07T01:06:48.630Z,95.69
2022-08-07T01:07:48.640Z,96.00
2022-08-07T01:08:53.149Z,96.45
2022-08-07T01:10:05.959Z,96.55
2022-08-07T01:10:54.363Z,96.45
2022-08-07T01:12:09.538Z,96.45
2022-08-07T01:12:53.964Z,96.55
2022-08-07T01:13:55.529Z,96.75
2022-08-07T01:14:48.811Z,96.96
2022-08-07T01:16:05.293Z,97.06
2022-08-07T01:16:48.932Z,97.27
2022-08-07T01:17:48.974Z,97.27
2022-08-07T01:18:49.021Z,97.16
2022-08-07T01:19:54.336Z,97.16
2022-08-07T01:20:57.454Z,97.47
2022-08-07T01:21:49.128Z,97.67
2022-08-07T01:23:12.290Z,97.67
2022-08-07T01:23:49.221Z,97.67
2022-08-07T01:24:49.263Z,97.57
2022-08-07T01:25:55.381Z,97.37
2022-08-07T01:26:51.922Z,97.11
2022-08-07T01:27:51.116Z,97.00
2022-08-07T01:28:49.351Z,97.41
2022-08-07T01:29:50.558Z,97.41
2022-08-07T01:30:51.360Z,97.46
2022-08-07T01:31:49.404Z,97.46
2022-08-07T01:32:49.433Z,97.56
2022-08-07T01:33:55.974Z,97.77
2022-08-07T01:34:49.513Z,97.97
2022-08-07T01:35:54.141Z,98.38
2022-08-07T01:36:52.588Z,98.38
2022-08-07T01:37:49.634Z,98.63
2022-08-07T01:38:49.674Z,98.83
2022-08-07T01:39:49.759Z,98.83
2022-08-07T01:40:49.720Z,98.94
2022-08-07T01:42:36.982Z,99.04
2022-08-07T01:42:57.409Z,99.41
2022-08-07T01:43:49.766Z,99.41
2022-08-07T01:44:49.745Z,99.51
2022-08-07T01:45:49.786Z,99.41
2022-08-07T01:46:49.805Z,99.41
2022-08-07T01:48:18.533Z,99.41
2022-08-07T01:48:49.797Z,99.61
2022-08-07T01:49:49.846Z,99.51
2022-08-07T01:50:49.867Z,99.41
2022-08-07T01:52:03.175Z,99.30
2022-08-07T01:52:54.339Z,99.30
2022-08-07T01:54:08.528Z,99.41
2022-08-07T01:54:49.989Z,99.55
2022-08-07T01:55:50.022Z,99.66
2022-08-07T01:56:50.072Z,99.91
2022-08-07T01:58:05.747Z,99.99
2022-08-07T01:58:50.091Z,99.99
2022-08-07T01:59:50.137Z,99.99
2022-08-07T02:00:50.173Z,99.99
2022-08-07T02:02:02.386Z,99.99
2022-08-07T02:03:18.742Z,99.99
2022-08-07T02:03:50.961Z,99.99
2022-08-07T02:04:56.239Z,99.99
2022-08-07T02:05:59.331Z,99.99
2022-08-07T02:06:50.381Z,99.99
2022-08-07T02:07:51.396Z,99.99
2022-08-07T02:08:54.387Z,99.99
2022-08-07T02:09:52.859Z,99.99
2022-08-07T02:10:54.980Z,99.99
2022-08-07T02:12:02.729Z,99.99
2022-08-07T02:12:50.594Z,99.99
2022-08-07T02:13:57.753Z,99.99
2022-08-07T02:14:50.673Z,99.99
2022-08-07T02:15:53.106Z,99.99
2022-08-07T02:16:50.793Z,99.99
2022-08-07T02:17:51.693Z,99.99
2022-08-07T02:18:51.163Z,99.99
2022-08-07T02:20:07.732Z,99.99
2022-08-07T02:20:55.834Z,99.99
2022-08-07T02:21:56.435Z,99.99
2022-08-07T02:22:54.842Z,99.99
2022-08-07T02:23:51.055Z,99.99
2022-08-07T02:24:51.121Z,99.99
2022-08-07T02:26:31.542Z,99.96
2022-08-07T02:26:51.187Z,99.96
2022-08-07T02:27:52.916Z,99.91
2022-08-07T02:28:51.239Z,99.91
2022-08-07T02:29:54.545Z,99.91
2022-08-07T02:30:51.317Z,99.86
2022-08-07T02:31:51.361Z,99.96
2022-08-07T02:33:00.528Z,99.86
2022-08-07T02:34:01.648Z,99.86
2022-08-07T02:34:51.538Z,99.76
2022-08-07T02:36:29.162Z,99.25
2022-08-07T02:36:51.509Z,99.40
2022-08-07T02:37:51.561Z,99.80
2022-08-07T02:38:56.817Z,99.99
2022-08-07T02:40:02.150Z,99.99
2022-08-07T02:40:55.585Z,99.99
2022-08-07T02:41:54.418Z,99.99
2022-08-07T02:42:51.741Z,99.99
2022-08-07T02:43:51.760Z,99.99
2022-08-07T02:44:51.922Z,99.99
2022-08-07T02:45:58.612Z,99.99
2022-08-07T02:46:52.872Z,99.99
2022-08-07T02:47:51.831Z,99.99
2022-08-07T02:48:54.917Z,99.99
2022-08-07T02:49:58.312Z,99.99
2022-08-07T02:50:51.902Z,99.99
2022-08-07T02:51:52.424Z,99.99
2022-08-07T02:52:52.001Z,99.99
2022-08-07T02:53:52.023Z,99.99
2022-08-07T02:54:52.198Z,99.99
2022-08-07T02:56:03.291Z,99.99
2022-08-07T02:56:52.113Z,99.99
2022-08-07T02:57:52.173Z,99.99
2022-08-07T02:58:54.137Z,99.99
2022-08-07T02:59:54.842Z,99.99
2022-08-07T03:00:52.308Z,99.99
2022-08-07T03:01:55.357Z,99.99
2022-08-07T03:02:54.940Z,99.99
2022-08-07T03:03:52.375Z,99.99
2022-08-07T03:04:52.444Z,99.99
2022-08-07T03:05:53.656Z,99.99
2022-08-07T03:06:52.565Z,99.99
2022-08-07T03:08:05.272Z,99.99
2022-08-07T03:08:52.645Z,99.99
2022-08-07T03:09:52.809Z,99.99
2022-08-07T03:10:52.636Z,99.99
2022-08-07T03:11:57.999Z,99.99
2022-08-07T03:12:52.656Z,99.99
2022-08-07T03:13:57.620Z,99.99
2022-08-07T03:14:52.918Z,99.99
2022-08-07T03:15:56.278Z,99.99
2022-08-07T03:16:52.744Z,99.99
2022-08-07T03:17:54.332Z,99.99
2022-08-07T03:18:52.807Z,99.99
2022-08-07T03:19:54.841Z,99.99
2022-08-07T03:20:52.923Z,99.99
2022-08-07T03:21:52.989Z,99.99
2022-08-07T03:22:52.978Z,99.99
2022-08-07T03:24:20.860Z,99.99
2022-08-07T03:24:53.039Z,99.99
2022-08-07T03:25:58.345Z,99.99
2022-08-07T03:26:59.157Z,99.99
2022-08-07T03:28:09.202Z,99.99
2022-08-07T03:28:53.154Z,99.99
2022-08-07T03:29:53.197Z,99.99
2022-08-07T03:30:53.243Z,99.99
2022-08-07T03:31:53.250Z,99.99
2022-08-07T03:32:59.378Z,99.99
2022-08-07T03:33:53.291Z,99.99
2022-08-07T03:35:16.738Z,99.99
2022-08-07T03:35:53.372Z,99.99
2022-08-07T03:36:53.734Z,99.99
2022-08-07T03:37:55.176Z,99.99
2022-08-07T03:38:53.403Z,99.99
2022-08-07T03:40:15.063Z,99.99
2022-08-07T03:40:57.453Z,99.99
2022-08-07T03:41:53.449Z,99.99
2022-08-07T03:42:53.434Z,99.99
2022-08-07T03:43:57.169Z,99.99
2022-08-07T03:44:57.820Z,99.99
2022-08-07T03:45:53.453Z,99.99
2022-08-07T03:47:11.057Z,99.99
2022-08-07T03:47:53.544Z,99.99
2022-08-07T03:49:02.963Z,99.99
2022-08-07T03:49:53.754Z,99.99
2022-08-07T03:50:57.662Z,99.99
2022-08-07T03:52:01.040Z,99.99
2022-08-07T03:52:53.752Z,99.99
2022-08-07T03:54:33.014Z,99.99
2022-08-07T03:54:54.861Z,99.99
2022-08-07T03:56:03.700Z,99.99
2022-08-07T03:57:03.287Z,99.99
2022-08-07T03:58:35.153Z,99.99
2022-08-07T03:59:08.365Z,99.99
2022-08-07T04:00:01.884Z,99.99
2022-08-07T04:00:55.928Z,99.99
2022-08-07T04:01:54.110Z,99.99
2022-08-07T04:02:56.773Z,99.99
2022-08-07T04:03:55.111Z,99.99
2022-08-07T04:04:54.107Z,99.99
2022-08-07T04:05:58.838Z,99.99
2022-08-07T04:06:54.190Z,99.99
2022-08-07T04:07:54.270Z,99.99
2022-08-07T04:08:54.290Z,99.99
2022-08-07T04:09:54.289Z,99.99
2022-08-07T04:11:28.877Z,99.99
2022-08-07T04:12:27.782Z,99.99
2022-08-07T04:12:54.400Z,99.99
2022-08-07T04:14:10.348Z,99.99
2022-08-07T04:14:54.441Z,99.99
2022-08-07T04:15:54.441Z,99.99
2022-08-07T04:16:58.199Z,99.99
2022-08-07T04:18:30.876Z,99.99
2022-08-07T04:18:59.716Z,99.99
2022-08-07T04:19:55.263Z,99.99
2022-08-07T04:20:55.160Z,99.99
2022-08-07T04:22:04.909Z,99.99
2022-08-07T04:23:01.612Z,99.99
2022-08-07T04:24:03.894Z,99.99
2022-08-07T04:24:54.692Z,99.99
2022-08-07T04:25:54.723Z,99.99
2022-08-07T04:26:54.802Z,99.99
2022-08-07T04:27:59.185Z,99.99
2022-08-07T04:28:54.863Z,99.99
2022-08-07T04:30:02.152Z,99.99
2022-08-07T04:30:56.902Z,99.99
2022-08-07T04:32:02.926Z,99.99
2022-08-07T04:32:57.857Z,99.99
2022-08-07T04:33:56.642Z,99.99
2022-08-07T04:34:54.975Z,99.99
2022-08-07T04:35:55.015Z,99.99
2022-08-07T04:36:55.048Z,99.99
2022-08-07T04:38:06.781Z,99.99
2022-08-07T04:38:55.098Z,99.99
2022-08-07T04:39:55.128Z,99.99
2022-08-07T04:40:56.874Z,99.99
2022-08-07T04:41:55.107Z,99.99
2022-08-07T04:42:55.150Z,99.99
2022-08-07T04:44:12.791Z,99.99
2022-08-07T04:45:02.921Z,99.99
2022-08-07T04:46:01.308Z,99.99
2022-08-07T04:47:04.800Z,99.99
2022-08-07T04:47:58.767Z,99.99
2022-08-07T04:48:55.474Z,99.99
2022-08-07T04:49:58.174Z,99.99
2022-08-07T04:50:55.148Z,99.99
2022-08-07T04:51:55.188Z,99.99
2022-08-07T04:52:55.168Z,99.99
2022-08-07T04:54:05.336Z,99.99
2022-08-07T04:54:55.230Z,99.99
2022-08-07T04:58:11.957Z,99.99
2022-08-07T04:58:14.164Z,99.99
2022-08-07T04:58:31.630Z,99.99
2022-08-07T04:59:18.179Z,99.99
2022-08-07T05:00:11.120Z,99.99
2022-08-07T05:00:55.377Z,99.99
2022-08-07T05:01:55.371Z,99.99
2022-08-07T05:02:55.381Z,99.99
2022-08-07T05:04:07.717Z,99.99
2022-08-07T05:04:55.452Z,99.99
2022-08-07T05:05:57.494Z,99.99
2022-08-07T05:06:55.483Z,99.99
2022-08-07T05:07:55.668Z,99.82
2022-08-07T05:09:01.242Z,99.11
2022-08-07T05:09:55.593Z,98.80
2022-08-07T05:10:58.591Z,98.70
2022-08-07T05:11:57.244Z,98.60
2022-08-07T05:12:59.828Z,98.70
2022-08-07T05:14:53.681Z,98.80
2022-08-07T05:15:03.286Z,98.80
2022-08-07T05:15:55.706Z,98.70
2022-08-07T05:16:55.714Z,98.60
2022-08-07T05:17:55.891Z,98.49
2022-08-07T05:18:55.791Z,98.24
2022-08-07T05:19:55.816Z,98.04
2022-08-07T05:20:55.787Z,97.54
2022-08-07T05:22:00.093Z,96.18
2022-08-07T05:22:55.866Z,92.89
2022-08-07T05:23:55.917Z,88.79
2022-08-07T05:24:55.990Z,85.96
2022-08-07T05:26:13.492Z,83.04
2022-08-07T05:26:56.060Z,81.48
2022-08-07T05:28:03.411Z,80.25
2022-08-07T05:28:56.110Z,79.20
2022-08-07T05:29:56.121Z,78.01
2022-08-07T05:30:56.765Z,75.71
2022-08-07T05:31:56.109Z,74.46
2022-08-07T05:32:56.141Z,73.69
2022-08-07T05:34:04.900Z,72.04
2022-08-07T05:34:56.183Z,71.91
2022-08-07T05:35:56.223Z,70.56
2022-08-07T05:36:56.253Z,69.35
2022-08-07T05:38:08.847Z,68.27
2022-08-07T05:39:00.561Z,68.74
2022-08-07T05:40:18.442Z,68.74
2022-08-07T05:40:56.446Z,68.41
2022-08-07T05:42:01.803Z,66.56
2022-08-07T05:42:56.615Z,66.27
2022-08-07T05:44:12.079Z,66.16
2022-08-07T05:45:04.479Z,66.33
2022-08-07T05:45:56.626Z,65.19
2022-08-07T05:46:56.668Z,64.56
2022-08-07T05:48:01.218Z,64.06
2022-08-07T05:48:59.095Z,63.82
2022-08-07T05:49:56.778Z,63.09
2022-08-07T05:50:56.760Z,62.29
2022-08-07T05:51:56.809Z,62.46
2022-08-07T05:52:56.849Z,62.36
2022-08-07T05:54:13.828Z,62.03
2022-08-07T05:54:58.777Z,61.40
2022-08-07T05:56:02.198Z,61.19
2022-08-07T05:56:56.991Z,60.06
2022-08-07T05:57:57.053Z,60.27
2022-08-07T05:58:57.024Z,59.86
2022-08-07T05:59:58.217Z,60.03
2022-08-07T06:00:57.033Z,59.44
2022-08-07T06:01:57.419Z,59.11
2022-08-07T06:02:57.175Z,59.00
2022-08-07T06:03:58.848Z,57.68
2022-08-07T06:04:57.237Z,57.65
2022-08-07T06:05:57.316Z,56.62
2022-08-07T06:07:03.793Z,55.40
2022-08-07T06:08:14.726Z,54.99
2022-08-07T06:08:57.467Z,54.29
2022-08-07T06:10:05.504Z,54.29
2022-08-07T06:10:57.539Z,54.69
2022-08-07T06:11:57.540Z,54.49
2022-08-07T06:12:57.600Z,55.09
2022-08-07T06:14:13.255Z,54.77
2022-08-07T06:15:02.959Z,54.77
2022-08-07T06:15:57.702Z,54.97
2022-08-07T06:16:57.722Z,55.36
2022-08-07T06:17:57.762Z,55.17
2022-08-07T06:18:57.794Z,55.17
2022-08-07T06:20:04.306Z,55.12
2022-08-07T06:22:11.676Z,55.55
2022-08-07T06:22:14.889Z,56.07
2022-08-07T06:23:02.568Z,56.77
2022-08-07T06:24:45.946Z,56.74
2022-08-07T06:25:01.094Z,55.74
2022-08-07T06:25:58.119Z,56.77
2022-08-07T06:26:58.166Z,56.35
2022-08-07T06:28:01.483Z,55.72
2022-08-07T06:28:59.019Z,55.29
2022-08-07T06:29:58.228Z,55.79
2022-08-07T06:30:58.626Z,55.59
2022-08-07T06:31:58.299Z,55.59
2022-08-07T06:32:58.349Z,55.59
2022-08-07T06:33:58.411Z,55.74
2022-08-07T06:34:58.448Z,56.74
2022-08-07T06:36:12.795Z,56.72
2022-08-07T06:36:58.482Z,56.29
2022-08-07T06:37:58.523Z,54.47
2022-08-07T06:40:13.427Z,54.64
2022-08-07T06:40:17.562Z,53.67
2022-08-07T06:40:58.769Z,54.49
2022-08-07T06:42:01.753Z,54.60
2022-08-07T06:42:58.821Z,55.02
2022-08-07T06:44:01.348Z,54.69
2022-08-07T06:44:58.838Z,54.27
2022-08-07T06:46:01.013Z,54.44
2022-08-07T06:47:10.230Z,53.72
2022-08-07T06:47:59.609Z,52.72
2022-08-07T06:48:58.950Z,53.17
2022-08-07T06:49:59.087Z,54.04
2022-08-07T06:50:59.049Z,54.02
2022-08-07T06:51:59.598Z,52.49
2022-08-07T06:52:59.120Z,51.77
2022-08-07T06:55:27.499Z,52.97
2022-08-07T06:55:32.011Z,52.57
2022-08-07T06:56:01.889Z,51.47
2022-08-07T06:56:59.289Z,51.47
2022-08-07T06:58:00.245Z,53.14
2022-08-07T07:00:11.857Z,54.17
2022-08-07T07:00:13.716Z,53.89
2022-08-07T07:00:59.344Z,53.92
2022-08-07T07:01:59.597Z,52.79
2022-08-07T07:03:08.777Z,52.57
2022-08-07T07:04:08.254Z,52.47
2022-08-07T07:04:59.523Z,52.72
2022-08-07T07:06:02.462Z,53.12
2022-08-07T07:07:01.216Z,52.79
2022-08-07T07:08:06.605Z,53.09
2022-08-07T07:08:59.662Z,53.02
2022-08-07T07:09:59.705Z,52.29
2022-08-07T07:11:00.929Z,51.87
2022-08-07T07:12:08.991Z,51.05
2022-08-07T07:12:59.671Z,50.52
2022-08-07T07:14:02.237Z,49.90
2022-08-07T07:14:59.672Z,49.60
2022-08-07T07:15:59.672Z,49.40
2022-08-07T07:16:59.723Z,49.40
2022-08-07T07:17:59.763Z,49.03
2022-08-07T07:18:59.817Z,49.73
2022-08-07T07:19:59.849Z,49.13
2022-08-07T07:20:59.885Z,48.80
2022-08-07T07:22:11.961Z,48.41
2022-08-07T07:24:05.644Z,49.01
2022-08-07T07:24:08.735Z,48.68
2022-08-07T07:25:02.901Z,48.26
2022-08-07T07:26:33.482Z,48.11
2022-08-07T07:27:00.126Z,46.50
2022-08-07T07:28:03.238Z,48.14
2022-08-07T07:29:56.761Z,47.05
2022-08-07T07:30:08.904Z,47.72
2022-08-07T07:31:00.271Z,47.50
2022-08-07T07:32:00.311Z,47.50
2022-08-07T07:33:00.343Z,46.50
2022-08-07T07:34:00.423Z,47.87
2022-08-07T07:35:04.523Z,45.89
2022-08-07T07:36:05.426Z,46.60
2022-08-07T07:37:14.817Z,46.90
2022-08-07T07:38:02.407Z,47.47
2022-08-07T07:39:00.695Z,46.42
2022-08-07T07:40:00.682Z,46.20
2022-08-07T07:41:02.406Z,46.11
2022-08-07T07:42:12.892Z,47.25
2022-08-07T07:43:11.606Z,46.83
2022-08-07T07:44:17.052Z,46.60
2022-08-07T07:45:00.775Z,45.39
2022-08-07T07:46:37.328Z,45.17
2022-08-07T07:47:14.050Z,44.83
2022-08-07T07:48:00.861Z,44.83
2022-08-07T07:50:15.944Z,44.71
2022-08-07T07:50:35.668Z,43.85
2022-08-07T07:51:02.131Z,44.45
2022-08-07T07:52:01.064Z,44.06
2022-08-07T07:53:01.129Z,43.76
2022-08-07T07:54:01.141Z,44.23
2022-08-07T07:55:01.224Z,43.62
2022-08-07T07:56:01.385Z,43.60
2022-08-07T07:57:01.525Z,42.88
2022-08-07T07:58:01.263Z,42.98
2022-08-07T07:59:01.611Z,41.77
2022-08-07T08:00:02.132Z,41.85
2022-08-07T08:01:01.348Z,41.87
2022-08-07T08:02:05.261Z,42.58
2022-08-07T08:03:05.217Z,42.55
2022-08-07T08:04:10.358Z,43.28
2022-08-07T08:05:01.510Z,43.01
2022-08-07T08:06:01.549Z,44.67
2022-08-07T08:07:02.863Z,43.28
2022-08-07T08:08:01.961Z,42.13
2022-08-07T08:09:01.662Z,41.39
2022-08-07T08:10:05.438Z,41.57
2022-08-07T08:11:01.732Z,40.78
2022-08-07T08:12:04.965Z,40.17
2022-08-07T08:13:03.035Z,39.77
2022-08-07T08:14:01.854Z,39.65
2022-08-07T08:15:01.911Z,39.58
2022-08-07T08:16:01.962Z,41.46
2022-08-07T08:17:55.334Z,40.66
2022-08-07T08:18:17.916Z,39.79
2022-08-07T08:19:17.440Z,40.50
2022-08-07T08:20:19.626Z,41.38
2022-08-07T08:21:02.179Z,41.25
2022-08-07T08:22:03.263Z,41.46
2022-08-07T08:23:02.199Z,40.86
2022-08-07T08:24:02.294Z,40.07
2022-08-07T08:25:18.127Z,39.26
2022-08-07T08:26:06.696Z,38.96
2022-08-07T08:27:02.328Z,39.46
2022-08-07T08:28:03.974Z,40.07
2022-08-07T08:29:02.389Z,40.45
2022-08-07T08:30:03.846Z,40.17
2022-08-07T08:31:02.450Z,40.58
2022-08-07T08:32:17.764Z,40.90
2022-08-07T08:33:03.006Z,40.37
2022-08-07T08:34:02.572Z,41.12
2022-08-07T08:35:02.583Z,41.73
2022-08-07T08:36:02.583Z,42.05
2022-08-07T08:37:02.637Z,42.51
2022-08-07T08:38:04.668Z,43.54
2022-08-07T08:39:02.939Z,44.26
2022-08-07T08:40:02.779Z,44.24
2022-08-07T08:41:02.981Z,42.61
2022-08-07T08:42:02.817Z,42.58
2022-08-07T08:43:02.945Z,41.16
2022-08-07T08:44:02.917Z,41.22
2022-08-07T08:45:04.432Z,40.58
2022-08-07T08:46:02.970Z,39.26
2022-08-07T08:47:03.018Z,39.32
2022-08-07T08:48:03.112Z,38.82
2022-08-07T08:49:03.070Z,38.73
2022-08-07T08:50:05.704Z,38.33
2022-08-07T08:51:03.385Z,38.45
2022-08-07T08:52:13.677Z,38.96
2022-08-07T08:53:03.272Z,39.97
2022-08-07T08:54:03.263Z,39.00
2022-08-07T08:55:07.619Z,40.60
2022-08-07T08:56:03.362Z,40.44
2022-08-07T08:57:03.365Z,39.53
2022-08-07T08:58:03.425Z,39.73
2022-08-07T08:59:06.658Z,39.31
2022-08-07T09:00:03.476Z,39.95
2022-08-07T09:01:14.555Z,39.25
2022-08-07T09:02:03.646Z,39.55
2022-08-07T09:03:07.461Z,39.29
2022-08-07T09:04:03.620Z,39.67
2022-08-07T09:05:03.680Z,39.75
2022-08-07T09:06:03.757Z,38.64
2022-08-07T09:07:04.063Z,38.11
2022-08-07T09:08:03.800Z,38.37
2022-08-07T09:09:13.406Z,37.79
2022-08-07T09:10:03.843Z,37.96
2022-08-07T09:11:03.891Z,36.55
2022-08-07T09:12:30.533Z,36.36
2022-08-07T09:13:03.997Z,36.52
2022-08-07T09:14:04.933Z,34.13
2022-08-07T09:16:20.657Z,35.25
2022-08-07T09:16:25.930Z,36.47
2022-08-07T09:17:04.144Z,37.73
2022-08-07T09:18:08.774Z,39.06
2022-08-07T09:19:07.078Z,39.75
2022-08-07T09:20:09.433Z,39.85
2022-08-07T09:21:04.162Z,38.72
2022-08-07T09:22:22.636Z,37.32
2022-08-07T09:24:33.192Z,37.81
2022-08-07T09:24:34.199Z,36.29
2022-08-07T09:25:07.119Z,36.08
2022-08-07T09:26:04.364Z,35.17
2022-08-07T09:27:09.153Z,34.66
2022-08-07T09:28:04.351Z,35.57
2022-08-07T09:30:05.169Z,34.36
2022-08-07T09:30:08.448Z,34.66
2022-08-07T09:31:04.413Z,35.25
2022-08-07T09:32:04.377Z,34.55
2022-08-07T09:33:05.229Z,35.25
2022-08-07T09:34:05.132Z,35.24
2022-08-07T09:36:04.125Z,35.85
2022-08-07T09:36:07.611Z,35.55
2022-08-07T09:37:04.714Z,36.75
2022-08-07T09:38:05.411Z,37.18
2022-08-07T09:39:11.465Z,37.30
2022-08-07T09:40:04.659Z,36.61
2022-08-07T09:41:04.703Z,36.51
2022-08-07T09:42:06.572Z,36.52
2022-08-07T09:43:04.681Z,35.30
2022-08-07T09:44:06.725Z,35.17
2022-08-07T09:47:25.997Z,34.86
2022-08-07T09:47:49.689Z,34.46
2022-08-07T09:47:50.517Z,35.25
2022-08-07T09:48:11.722Z,33.54
2022-08-07T09:50:02.500Z,33.23
2022-08-07T09:50:18.424Z,33.25
2022-08-07T09:51:05.371Z,33.65
2022-08-07T09:52:16.673Z,34.53
2022-08-07T09:53:05.077Z,33.53
2022-08-07T09:54:05.113Z,33.82
2022-08-07T09:55:05.056Z,33.72
2022-08-07T09:56:05.517Z,33.54
2022-08-07T09:57:05.148Z,34.46
2022-08-07T09:58:05.157Z,34.79
2022-08-07T09:59:07.850Z,33.77
2022-08-07T10:00:05.145Z,33.46
2022-08-07T10:01:08.446Z,33.95
2022-08-07T10:02:05.301Z,34.33
2022-08-07T10:03:08.411Z,33.01
2022-08-07T10:04:14.869Z,33.58
2022-08-07T10:05:12.648Z,33.92
2022-08-07T10:06:10.850Z,34.61
2022-08-07T10:07:05.430Z,34.30
2022-08-07T10:08:05.462Z,34.76
2022-08-07T10:09:05.646Z,32.34
2022-08-07T10:10:05.585Z,32.60
2022-08-07T10:11:59.542Z,31.60
2022-08-07T10:12:15.464Z,31.09
2022-08-07T10:13:05.585Z,30.38
2022-08-07T10:14:05.694Z,30.79
2022-08-07T10:15:06.358Z,31.36
2022-08-07T10:16:05.706Z,31.28
2022-08-07T10:17:14.432Z,31.70
2022-08-07T10:18:05.816Z,31.69
2022-08-07T10:19:11.363Z,31.72
2022-08-07T10:20:05.902Z,32.34
2022-08-07T10:21:20.064Z,32.35
2022-08-07T10:22:16.045Z,32.87
2022-08-07T10:23:07.645Z,32.70
2022-08-07T10:24:08.573Z,32.90
2022-08-07T10:25:06.863Z,33.16
2022-08-07T10:26:06.080Z,33.15
2022-08-07T10:27:06.704Z,33.62
2022-08-07T10:28:06.955Z,32.95
2022-08-07T10:29:06.053Z,33.87
2022-08-07T10:30:06.417Z,33.18
2022-08-07T10:31:11.010Z,33.67
2022-08-07T10:32:06.222Z,33.49
2022-08-07T10:33:06.215Z,32.29
2022-08-07T10:34:15.738Z,32.39
2022-08-07T10:35:09.122Z,33.31
2022-08-07T10:36:12.549Z,33.92
2022-08-07T10:37:06.321Z,34.50
2022-08-07T10:38:21.256Z,33.70
2022-08-07T10:39:06.555Z,33.61
2022-08-07T10:40:09.150Z,34.00
2022-08-07T10:41:06.523Z,33.49
2022-08-07T10:42:09.706Z,32.95
2022-08-07T10:43:06.829Z,33.34
2022-08-07T10:44:07.779Z,33.75
2022-08-07T10:45:07.382Z,33.59
2022-08-07T10:46:06.593Z,34.17
2022-08-07T10:47:11.588Z,32.97
2022-08-07T10:48:07.339Z,32.67
2022-08-07T10:49:06.634Z,33.75
2022-08-07T10:50:06.635Z,33.84
2022-08-07T10:51:06.654Z,33.42
2022-08-07T10:52:13.227Z,32.41
2022-08-07T10:53:08.980Z,32.80
2022-08-07T10:54:06.660Z,31.99
2022-08-07T10:55:20.905Z,33.23
2022-08-07T10:56:06.708Z,34.79
2022-08-07T10:57:06.758Z,34.01
2022-08-07T10:58:07.639Z,33.70
2022-08-07T10:59:06.847Z,34.22
2022-08-07T11:00:06.911Z,35.07
2022-08-07T11:01:11.657Z,33.97
2022-08-07T11:02:12.482Z,33.26
2022-08-07T11:03:11.030Z,33.39
2022-08-07T11:04:16.981Z,33.49
2022-08-07T11:05:10.552Z,34.51
2022-08-07T11:06:07.064Z,34.56
2022-08-07T11:07:14.938Z,35.21
2022-08-07T11:08:07.412Z,36.00
2022-08-07T11:09:11.457Z,36.58
2022-08-07T11:10:10.918Z,35.19
2022-08-07T11:11:07.357Z,35.80
2022-08-07T11:12:07.250Z,36.18
2022-08-07T11:13:07.216Z,36.46
2022-08-07T11:14:57.474Z,35.35
2022-08-07T11:15:09.634Z,35.46
2022-08-07T11:16:08.169Z,34.92
2022-08-07T11:17:09.124Z,34.10
2022-08-07T11:18:07.350Z,33.87
2022-08-07T11:19:08.069Z,33.26
2022-08-07T11:20:09.770Z,32.77
2022-08-07T11:21:07.858Z,32.88
2022-08-07T11:22:18.952Z,33.29
2022-08-07T11:23:09.287Z,33.67
2022-08-07T11:24:08.353Z,33.46
2022-08-07T11:25:07.636Z,33.58
2022-08-07T11:26:07.643Z,33.46
2022-08-07T11:27:07.707Z,33.36
2022-08-07T11:28:08.130Z,33.46
2022-08-07T11:29:13.163Z,33.39
2022-08-07T11:30:10.122Z,34.01
2022-08-07T11:31:08.527Z,34.91
2022-08-07T11:32:07.865Z,34.78
2022-08-07T11:33:14.275Z,32.49
2022-08-07T11:34:10.860Z,32.97
2022-08-07T11:35:09.329Z,32.37
2022-08-07T11:36:10.109Z,32.65
2022-08-07T11:37:11.836Z,31.57
2022-08-07T11:38:12.495Z,31.07
2022-08-07T11:39:08.111Z,31.88
2022-08-07T11:40:08.119Z,31.27
2022-08-07T11:41:08.078Z,30.99
2022-08-07T11:42:08.127Z,31.91
2022-08-07T11:43:08.163Z,32.49
2022-08-07T11:44:12.283Z,32.28
2022-08-07T11:45:08.219Z,31.76
2022-08-07T11:46:08.221Z,32.59
2022-08-07T11:47:08.250Z,31.86
2022-08-07T11:48:18.008Z,31.67
2022-08-07T11:49:51.299Z,32.85
2022-08-07T11:50:31.587Z,31.95
2022-08-07T11:51:09.715Z,32.35
2022-08-07T11:52:08.463Z,32.06
2022-08-07T11:53:08.513Z,31.76
2022-08-07T11:54:10.423Z,33.20
2022-08-07T11:55:18.693Z,34.25
2022-08-07T11:56:27.206Z,33.42
2022-08-07T11:57:12.825Z,32.45
2022-08-07T11:58:12.574Z,32.18
2022-08-07T12:00:07.974Z,33.16
2022-08-07T12:00:19.243Z,32.85
2022-08-07T12:01:09.016Z,31.86
2022-08-07T12:02:17.602Z,32.45
2022-08-07T12:03:08.976Z,32.54
2022-08-07T12:04:09.009Z,32.88
2022-08-07T12:05:28.840Z,32.88
2022-08-07T12:06:37.034Z,33.47
2022-08-07T12:07:20.298Z,33.65
2022-08-07T12:08:25.462Z,32.34
2022-08-07T12:09:16.064Z,32.14
2022-08-07T12:10:09.179Z,32.72
2022-08-07T12:11:20.184Z,31.34
2022-08-07T12:12:11.424Z,32.21
2022-08-07T12:13:11.707Z,31.95
2022-08-07T12:14:09.703Z,32.52
2022-08-07T12:15:17.207Z,31.56
2022-08-07T12:16:09.441Z,32.01
2022-08-07T12:17:09.286Z,33.20
2022-08-07T12:18:11.213Z,33.16
2022-08-07T12:19:09.316Z,33.51
2022-08-07T12:20:20.062Z,32.44
2022-08-07T12:21:09.386Z,31.52
2022-08-07T12:22:39.327Z,32.04
2022-08-07T12:23:09.471Z,32.24
2022-08-07T12:24:38.387Z,32.78
2022-08-07T12:25:09.528Z,33.62
2022-08-07T12:26:28.561Z,34.33
2022-08-07T12:27:16.014Z,34.39
2022-08-07T12:28:10.861Z,32.80
2022-08-07T12:29:09.616Z,32.88
2022-08-07T12:30:09.660Z,33.08
2022-08-07T12:31:09.723Z,33.77
2022-08-07T12:32:13.115Z,34.30
2022-08-07T12:33:23.329Z,34.58
2022-08-07T12:34:11.256Z,32.90
2022-08-07T12:35:09.785Z,33.92
2022-08-07T12:36:11.107Z,34.34
2022-08-07T12:37:16.581Z,35.02
2022-08-07T12:38:16.877Z,33.97
2022-08-07T12:39:42.631Z,34.64
2022-08-07T12:40:24.172Z,35.00
2022-08-07T12:41:10.131Z,33.39
2022-08-07T12:42:09.967Z,33.44
2022-08-07T12:43:10.312Z,31.95
2022-08-07T12:44:13.109Z,31.85
2022-08-07T12:45:10.099Z,32.24
2022-08-07T12:46:10.111Z,31.78
2022-08-07T12:47:10.159Z,32.35
2022-08-07T12:48:13.069Z,31.95
2022-08-07T12:49:25.665Z,32.92
2022-08-07T12:50:39.450Z,33.00
2022-08-07T12:51:12.842Z,32.57
2022-08-07T12:52:14.547Z,32.38
2022-08-07T12:53:17.686Z,30.79